sensor_id;sensor_type;location;lat;lon;timestamp;pressure;altitude;pressure_sealevel;temperature;humidity
55291;BME280;41155;39.768;2.712;2024-01-16T00:00:14;100833.03;;;12.32;82.06
55291;BME280;41155;39.768;2.712;2024-01-16T00:02:40;100829.44;;;12.21;83.16
55291;BME280;41155;39.768;2.712;2024-01-16T00:05:06;100829.78;;;12.30;83.11
55291;BME280;41155;39.768;2.712;2024-01-16T00:07:31;100817.59;;;12.32;82.95
55291;BME280;41155;39.768;2.712;2024-01-16T00:09:58;100830.34;;;12.37;83.28
55291;BME280;41155;39.768;2.712;2024-01-16T00:12:24;100833.66;;;12.44;83.30
55291;BME280;41155;39.768;2.712;2024-01-16T00:14:49;100822.53;;;12.40;83.02
55291;BME280;41155;39.768;2.712;2024-01-16T00:17:15;100837.66;;;12.36;82.89
55291;BME280;41155;39.768;2.712;2024-01-16T00:19:41;100839.81;;;12.34;82.99
55291;BME280;41155;39.768;2.712;2024-01-16T00:22:06;100839.22;;;12.27;83.27
55291;BME280;41155;39.768;2.712;2024-01-16T00:24:32;100833.06;;;12.37;82.50
55291;BME280;41155;39.768;2.712;2024-01-16T00:26:57;100843.16;;;12.47;81.96
55291;BME280;41155;39.768;2.712;2024-01-16T00:29:23;100839.44;;;11.88;83.38
55291;BME280;41155;39.768;2.712;2024-01-16T00:31:49;100836.03;;;11.76;84.41
55291;BME280;41155;39.768;2.712;2024-01-16T00:34:14;100832.34;;;11.55;84.74
55291;BME280;41155;39.768;2.712;2024-01-16T00:36:40;100796.25;;;11.17;86.05
55291;BME280;41155;39.768;2.712;2024-01-16T00:39:05;100814.06;;;11.40;86.69
55291;BME280;41155;39.768;2.712;2024-01-16T00:41:32;100816.63;;;11.52;86.50
55291;BME280;41155;39.768;2.712;2024-01-16T00:43:57;100822.97;;;11.68;86.31
55291;BME280;41155;39.768;2.712;2024-01-16T00:46:23;100824.41;;;11.75;85.87
55291;BME280;41155;39.768;2.712;2024-01-16T00:48:48;100814.47;;;11.81;85.65
55291;BME280;41155;39.768;2.712;2024-01-16T00:51:14;100835.69;;;11.94;84.79
55291;BME280;41155;39.768;2.712;2024-01-16T00:53:40;100836.78;;;11.93;83.95
55291;BME280;41155;39.768;2.712;2024-01-16T00:56:06;100827.72;;;12.10;83.23
55291;BME280;41155;39.768;2.712;2024-01-16T00:58:31;100828.84;;;12.14;83.14
55291;BME280;41155;39.768;2.712;2024-01-16T01:00:57;100803.56;;;12.03;82.34
55291;BME280;41155;39.768;2.712;2024-01-16T01:03:22;100822.91;;;12.17;81.96
55291;BME280;41155;39.768;2.712;2024-01-16T01:05:48;100822.84;;;12.12;81.63
55291;BME280;41155;39.768;2.712;2024-01-16T01:08:13;100834.28;;;12.19;81.54
55291;BME280;41155;39.768;2.712;2024-01-16T01:10:39;100844.91;;;12.26;81.36
55291;BME280;41155;39.768;2.712;2024-01-16T01:13:04;100850.59;;;12.24;81.34
55291;BME280;41155;39.768;2.712;2024-01-16T01:15:30;100855.34;;;11.85;81.08
55291;BME280;41155;39.768;2.712;2024-01-16T01:17:55;100854.75;;;11.28;83.56
55291;BME280;41155;39.768;2.712;2024-01-16T01:20:21;100850.41;;;11.27;85.40
55291;BME280;41155;39.768;2.712;2024-01-16T01:22:47;100830.09;;;11.25;85.53
55291;BME280;41155;39.768;2.712;2024-01-16T01:25:12;100847.19;;;11.52;85.85
55291;BME280;41155;39.768;2.712;2024-01-16T01:27:38;100840.38;;;11.50;85.66
55291;BME280;41155;39.768;2.712;2024-01-16T01:30:08;100849.16;;;11.62;85.67
55291;BME280;41155;39.768;2.712;2024-01-16T01:32:35;100846.63;;;11.77;85.70
55291;BME280;41155;39.768;2.712;2024-01-16T01:35:01;100850.25;;;11.88;85.25
55291;BME280;41155;39.768;2.712;2024-01-16T01:37:26;100859.50;;;11.92;84.79
55291;BME280;41155;39.768;2.712;2024-01-16T01:39:52;100838.50;;;11.77;84.21
55291;BME280;41155;39.768;2.712;2024-01-16T01:42:17;100857.19;;;11.79;83.75
55291;BME280;41155;39.768;2.712;2024-01-16T01:44:43;100857.63;;;11.71;84.09
55291;BME280;41155;39.768;2.712;2024-01-16T01:47:09;100857.13;;;11.74;83.94
55291;BME280;41155;39.768;2.712;2024-01-16T01:49:35;100869.63;;;11.80;83.88
55291;BME280;41155;39.768;2.712;2024-01-16T01:52:02;100854.53;;;11.84;83.44
55291;BME280;41155;39.768;2.712;2024-01-16T01:54:29;100871.38;;;11.86;83.00
55291;BME280;41155;39.768;2.712;2024-01-16T01:56:56;100862.59;;;11.79;83.04
55291;BME280;41155;39.768;2.712;2024-01-16T01:59:23;100866.25;;;11.41;83.71
55291;BME280;41155;39.768;2.712;2024-01-16T02:01:50;100870.94;;;11.50;84.09
55291;BME280;41155;39.768;2.712;2024-01-16T02:04:19;100870.44;;;11.53;84.34
55291;BME280;41155;39.768;2.712;2024-01-16T02:06:45;100879.75;;;11.19;84.78
55291;BME280;41155;39.768;2.712;2024-01-16T02:09:11;100869.34;;;11.05;87.06
55291;BME280;41155;39.768;2.712;2024-01-16T02:11:42;100855.31;;;11.08;87.99
55291;BME280;41155;39.768;2.712;2024-01-16T02:14:09;100870.31;;;11.21;88.16
55291;BME280;41155;39.768;2.712;2024-01-16T02:16:41;100878.94;;;11.40;88.07
55291;BME280;41155;39.768;2.712;2024-01-16T02:19:08;100868.50;;;11.49;87.53
55291;BME280;41155;39.768;2.712;2024-01-16T02:21:43;100885.09;;;11.58;86.88
55291;BME280;41155;39.768;2.712;2024-01-16T02:24:10;100869.47;;;11.65;86.22
55291;BME280;41155;39.768;2.712;2024-01-16T02:26:36;100868.28;;;11.56;85.58
55291;BME280;41155;39.768;2.712;2024-01-16T02:29:02;100874.72;;;11.05;84.55
55291;BME280;41155;39.768;2.712;2024-01-16T02:31:34;100869.22;;;10.61;87.36
55291;BME280;41155;39.768;2.712;2024-01-16T02:34:00;100877.09;;;10.80;88.10
55291;BME280;41155;39.768;2.712;2024-01-16T02:36:27;100868.69;;;10.98;88.40
55291;BME280;41155;39.768;2.712;2024-01-16T02:38:53;100852.34;;;11.10;87.85
55291;BME280;41155;39.768;2.712;2024-01-16T02:41:18;100849.78;;;11.20;87.82
55291;BME280;41155;39.768;2.712;2024-01-16T02:43:44;100856.09;;;11.31;87.27
55291;BME280;41155;39.768;2.712;2024-01-16T02:46:10;100863.59;;;11.46;86.96
55291;BME280;41155;39.768;2.712;2024-01-16T02:48:36;100852.81;;;11.51;86.05
55291;BME280;41155;39.768;2.712;2024-01-16T02:51:02;100855.28;;;11.52;85.16
55291;BME280;41155;39.768;2.712;2024-01-16T02:53:29;100853.91;;;11.50;84.94
55291;BME280;41155;39.768;2.712;2024-01-16T02:55:54;100840.69;;;11.53;84.61
55291;BME280;41155;39.768;2.712;2024-01-16T02:58:20;100829.94;;;11.59;84.02
55291;BME280;41155;39.768;2.712;2024-01-16T03:00:47;100846.94;;;11.32;83.71
55291;BME280;41155;39.768;2.712;2024-01-16T03:03:12;100836.91;;;11.05;84.73
55291;BME280;41155;39.768;2.712;2024-01-16T03:05:38;100836.91;;;11.05;85.04
55291;BME280;41155;39.768;2.712;2024-01-16T03:08:03;100834.47;;;10.65;87.05
55291;BME280;41155;39.768;2.712;2024-01-16T03:10:29;100828.97;;;10.77;88.23
55291;BME280;41155;39.768;2.712;2024-01-16T03:12:54;100823.06;;;10.80;88.13
55291;BME280;41155;39.768;2.712;2024-01-16T03:15:20;100820.44;;;10.85;88.89
55291;BME280;41155;39.768;2.712;2024-01-16T03:17:46;100821.13;;;10.97;88.81
55291;BME280;41155;39.768;2.712;2024-01-16T03:20:12;100828.16;;;10.98;88.82
55291;BME280;41155;39.768;2.712;2024-01-16T03:22:38;100816.28;;;10.99;88.61
55291;BME280;41155;39.768;2.712;2024-01-16T03:25:04;100833.56;;;11.20;88.26
55291;BME280;41155;39.768;2.712;2024-01-16T03:27:30;100820.66;;;11.27;87.78
55291;BME280;41155;39.768;2.712;2024-01-16T03:29:55;100830.94;;;11.25;86.84
55291;BME280;41155;39.768;2.712;2024-01-16T03:32:21;100830.09;;;11.25;87.08
55291;BME280;41155;39.768;2.712;2024-01-16T03:34:46;100819.19;;;11.15;86.51
55291;BME280;41155;39.768;2.712;2024-01-16T03:37:12;100817.22;;;11.10;86.42
55291;BME280;41155;39.768;2.712;2024-01-16T03:39:37;100829.97;;;11.15;86.30
55291;BME280;41155;39.768;2.712;2024-01-16T03:42:03;100826.72;;;11.13;86.21
55291;BME280;41155;39.768;2.712;2024-01-16T03:44:28;100821.31;;;11.13;86.73
55291;BME280;41155;39.768;2.712;2024-01-16T03:46:54;100795.63;;;10.88;87.05
55291;BME280;41155;39.768;2.712;2024-01-16T03:49:20;100808.22;;;11.04;87.57
55291;BME280;41155;39.768;2.712;2024-01-16T03:51:46;100798.59;;;11.14;87.16
55291;BME280;41155;39.768;2.712;2024-01-16T03:54:12;100814.81;;;11.14;87.08
55291;BME280;41155;39.768;2.712;2024-01-16T03:56:41;100824.00;;;11.13;86.93
55291;BME280;41155;39.768;2.712;2024-01-16T03:59:06;100816.16;;;10.89;87.29
55291;BME280;41155;39.768;2.712;2024-01-16T04:01:33;100830.13;;;11.03;86.96
55291;BME280;41155;39.768;2.712;2024-01-16T04:03:59;100818.13;;;10.94;87.08
55291;BME280;41155;39.768;2.712;2024-01-16T04:06:24;100834.94;;;11.01;87.25
55291;BME280;41155;39.768;2.712;2024-01-16T04:08:51;100828.09;;;10.93;87.63
55291;BME280;41155;39.768;2.712;2024-01-16T04:11:17;100825.44;;;10.98;88.07
55291;BME280;41155;39.768;2.712;2024-01-16T04:13:43;100827.47;;;11.08;87.80
55291;BME280;41155;39.768;2.712;2024-01-16T04:16:08;100819.00;;;10.99;87.71
55291;BME280;41155;39.768;2.712;2024-01-16T04:18:39;100831.34;;;10.95;87.27
55291;BME280;41155;39.768;2.712;2024-01-16T04:21:06;100806.03;;;10.79;87.48
55291;BME280;41155;39.768;2.712;2024-01-16T04:23:32;100805.19;;;10.79;88.00
55291;BME280;41155;39.768;2.712;2024-01-16T04:25:58;100789.50;;;10.76;88.11
55291;BME280;41155;39.768;2.712;2024-01-16T04:28:23;100799.22;;;10.94;88.53
55291;BME280;41155;39.768;2.712;2024-01-16T04:30:49;100785.09;;;10.70;88.05
55291;BME280;41155;39.768;2.712;2024-01-16T04:33:15;100790.00;;;10.73;88.91
55291;BME280;41155;39.768;2.712;2024-01-16T04:35:40;100787.56;;;10.93;89.35
55291;BME280;41155;39.768;2.712;2024-01-16T04:38:06;100786.69;;;11.09;90.87
55291;BME280;41155;39.768;2.712;2024-01-16T04:40:33;100778.34;;;11.11;90.54
55291;BME280;41155;39.768;2.712;2024-01-16T04:42:59;100795.28;;;11.06;89.76
55291;BME280;41155;39.768;2.712;2024-01-16T04:45:24;100799.69;;;11.13;89.13
55291;BME280;41155;39.768;2.712;2024-01-16T04:47:50;100795.44;;;11.17;88.56
55291;BME280;41155;39.768;2.712;2024-01-16T04:50:15;100794.06;;;11.19;88.25
55291;BME280;41155;39.768;2.712;2024-01-16T04:52:41;100792.75;;;11.22;87.34
55291;BME280;41155;39.768;2.712;2024-01-16T04:55:07;100797.81;;;10.91;86.42
55291;BME280;41155;39.768;2.712;2024-01-16T04:57:33;100800.41;;;10.64;88.75
55291;BME280;41155;39.768;2.712;2024-01-16T04:59:58;100790.00;;;10.73;88.74
55291;BME280;41155;39.768;2.712;2024-01-16T05:02:24;100790.06;;;10.78;89.00
55291;BME280;41155;39.768;2.712;2024-01-16T05:04:49;100793.44;;;10.85;89.01
55291;BME280;41155;39.768;2.712;2024-01-16T05:07:18;100788.06;;;10.90;88.98
55291;BME280;41155;39.768;2.712;2024-01-16T05:09:46;100789.88;;;11.06;88.82
55291;BME280;41155;39.768;2.712;2024-01-16T05:12:11;100792.97;;;11.15;88.24
55291;BME280;41155;39.768;2.712;2024-01-16T05:14:37;100786.09;;;11.29;87.48
55291;BME280;41155;39.768;2.712;2024-01-16T05:17:03;100793.69;;;11.32;86.64
55291;BME280;41155;39.768;2.712;2024-01-16T05:19:29;100772.88;;;11.06;86.54
55291;BME280;41155;39.768;2.712;2024-01-16T05:21:54;100781.84;;;11.12;86.30
55291;BME280;41155;39.768;2.712;2024-01-16T05:24:20;100776.38;;;10.84;86.87
55291;BME280;41155;39.768;2.712;2024-01-16T05:26:45;100781.78;;;10.84;88.08
55291;BME280;41155;39.768;2.712;2024-01-16T05:29:11;100776.72;;;10.88;88.82
55291;BME280;41155;39.768;2.712;2024-01-16T05:31:40;100777.97;;;11.02;88.69
55291;BME280;41155;39.768;2.712;2024-01-16T05:34:07;100768.22;;;11.01;88.52
55291;BME280;41155;39.768;2.712;2024-01-16T05:36:33;100786.19;;;11.13;88.03
55291;BME280;41155;39.768;2.712;2024-01-16T05:38:58;100766.44;;;11.12;87.90
55291;BME280;41155;39.768;2.712;2024-01-16T05:41:24;100773.28;;;11.20;87.00
55291;BME280;41155;39.768;2.712;2024-01-16T05:43:49;100765.56;;;11.06;86.65
55291;BME280;41155;39.768;2.712;2024-01-16T05:46:15;100782.88;;;11.05;86.98
55291;BME280;41155;39.768;2.712;2024-01-16T05:48:40;100779.16;;;11.12;87.12
55291;BME280;41155;39.768;2.712;2024-01-16T05:51:06;100789.75;;;11.18;87.67
55291;BME280;41155;39.768;2.712;2024-01-16T05:53:31;100796.97;;;11.13;87.18
55291;BME280;41155;39.768;2.712;2024-01-16T05:55:57;100811.50;;;11.06;87.58
55291;BME280;41155;39.768;2.712;2024-01-16T05:58:22;100809.03;;;11.05;87.34
55291;BME280;41155;39.768;2.712;2024-01-16T06:00:48;100810.38;;;11.02;87.24
55291;BME280;41155;39.768;2.712;2024-01-16T06:03:13;100790.63;;;11.02;87.04
55291;BME280;41155;39.768;2.712;2024-01-16T06:05:39;100817.22;;;11.10;86.46
55291;BME280;41155;39.768;2.712;2024-01-16T06:08:06;100816.34;;;10.82;86.70
55291;BME280;41155;39.768;2.712;2024-01-16T06:10:31;100809.19;;;10.71;87.92
55291;BME280;41155;39.768;2.712;2024-01-16T06:12:57;100808.47;;;10.59;89.57
55291;BME280;41155;39.768;2.712;2024-01-16T06:15:22;100816.88;;;10.62;90.23
55291;BME280;41155;39.768;2.712;2024-01-16T06:17:48;100793.91;;;10.60;91.05
55291;BME280;41155;39.768;2.712;2024-01-16T06:20:14;100788.88;;;10.69;91.68
55291;BME280;41155;39.768;2.712;2024-01-16T06:22:39;100788.81;;;10.63;91.78
55291;BME280;41155;39.768;2.712;2024-01-16T06:25:05;100796.25;;;10.73;91.94
55291;BME280;41155;39.768;2.712;2024-01-16T06:27:31;100788.75;;;10.80;92.10
55291;BME280;41155;39.768;2.712;2024-01-16T06:29:57;100794.63;;;10.94;92.13
55291;BME280;41155;39.768;2.712;2024-01-16T06:32:23;100783.09;;;11.04;92.12
55291;BME280;41155;39.768;2.712;2024-01-16T06:34:49;100779.22;;;11.17;91.48
55291;BME280;41155;39.768;2.712;2024-01-16T06:37:14;100777.25;;;11.12;92.21
55291;BME280;41155;39.768;2.712;2024-01-16T06:39:39;100787.84;;;11.19;92.33
55291;BME280;41155;39.768;2.712;2024-01-16T06:42:05;100773.53;;;11.18;91.84
55291;BME280;41155;39.768;2.712;2024-01-16T06:44:31;100795.53;;;11.27;91.33
55291;BME280;41155;39.768;2.712;2024-01-16T06:46:56;100780.31;;;11.21;90.29
55291;BME280;41155;39.768;2.712;2024-01-16T06:49:22;100781.41;;;11.20;89.96
55291;BME280;41155;39.768;2.712;2024-01-16T06:51:47;100793.25;;;11.19;90.02
55291;BME280;41155;39.768;2.712;2024-01-16T06:54:13;100790.47;;;11.08;89.79
55291;BME280;41155;39.768;2.712;2024-01-16T06:56:41;100799.50;;;10.97;89.80
55291;BME280;41155;39.768;2.712;2024-01-16T06:59:07;100788.06;;;10.90;89.45
55291;BME280;41155;39.768;2.712;2024-01-16T07:01:32;100788.34;;;10.89;90.41
55291;BME280;41155;39.768;2.712;2024-01-16T07:03:58;100783.81;;;10.94;90.55
55291;BME280;41155;39.768;2.712;2024-01-16T07:06:23;100777.81;;;10.92;90.44
55291;BME280;41155;39.768;2.712;2024-01-16T07:08:49;100774.06;;;10.93;90.71
55291;BME280;41155;39.768;2.712;2024-01-16T07:11:15;100767.53;;;10.89;90.87
55291;BME280;41155;39.768;2.712;2024-01-16T07:13:41;100788.25;;;11.05;91.10
55291;BME280;41155;39.768;2.712;2024-01-16T07:16:09;100793.47;;;11.12;91.61
55291;BME280;41155;39.768;2.712;2024-01-16T07:18:39;100792.72;;;11.17;91.68
55291;BME280;41155;39.768;2.712;2024-01-16T07:21:16;100798.81;;;11.29;91.67
55291;BME280;41155;39.768;2.712;2024-01-16T07:23:41;100790.38;;;11.25;91.66
55291;BME280;41155;39.768;2.712;2024-01-16T07:26:07;100810.78;;;11.38;91.35
55291;BME280;41155;39.768;2.712;2024-01-16T07:28:32;100809.16;;;11.37;90.61
55291;BME280;41155;39.768;2.712;2024-01-16T07:30:58;100814.50;;;11.32;90.01
55291;BME280;41155;39.768;2.712;2024-01-16T07:33:23;100814.59;;;11.42;89.90
55291;BME280;41155;39.768;2.712;2024-01-16T07:35:49;100816.06;;;11.28;90.59
55291;BME280;41155;39.768;2.712;2024-01-16T07:38:14;100826.38;;;11.31;90.67
55291;BME280;41155;39.768;2.712;2024-01-16T07:40:40;100824.25;;;11.33;91.14
55291;BME280;41155;39.768;2.712;2024-01-16T07:43:05;100832.34;;;11.33;91.58
55291;BME280;41155;39.768;2.712;2024-01-16T07:45:31;100833.38;;;11.27;92.05
55291;BME280;41155;39.768;2.712;2024-01-16T07:47:56;100837.94;;;11.04;93.38
55291;BME280;41155;39.768;2.712;2024-01-16T07:50:22;100853.72;;;11.13;94.25
55291;BME280;41155;39.768;2.712;2024-01-16T07:52:47;100847.97;;;11.26;94.77
55291;BME280;41155;39.768;2.712;2024-01-16T07:55:13;100856.25;;;11.41;94.83
55291;BME280;41155;39.768;2.712;2024-01-16T07:57:38;100849.66;;;11.59;95.54
55291;BME280;41155;39.768;2.712;2024-01-16T08:00:04;100870.13;;;11.77;95.59
55291;BME280;41155;39.768;2.712;2024-01-16T08:02:34;100870.13;;;11.77;94.70
55291;BME280;41155;39.768;2.712;2024-01-16T08:04:59;100867.06;;;11.68;94.51
55291;BME280;41155;39.768;2.712;2024-01-16T08:07:26;100879.69;;;11.85;94.12
55291;BME280;41155;39.768;2.712;2024-01-16T08:09:52;100887.22;;;11.77;93.39
55291;BME280;41155;39.768;2.712;2024-01-16T08:12:17;100892.72;;;11.88;93.02
55291;BME280;41155;39.768;2.712;2024-01-16T08:14:43;100881.69;;;11.94;92.86
55291;BME280;41155;39.768;2.712;2024-01-16T08:17:09;100882.22;;;11.91;92.33
55291;BME280;41155;39.768;2.712;2024-01-16T08:19:34;100879.63;;;11.80;92.88
55291;BME280;41155;39.768;2.712;2024-01-16T08:22:01;100874.38;;;11.90;92.76
55291;BME280;41155;39.768;2.712;2024-01-16T08:24:28;100879.00;;;11.94;92.53
55291;BME280;41155;39.768;2.712;2024-01-16T08:26:53;100872.59;;;12.01;92.88
55291;BME280;41155;39.768;2.712;2024-01-16T08:29:19;100879.69;;;12.12;93.15
55291;BME280;41155;39.768;2.712;2024-01-16T08:31:44;100867.59;;;12.19;93.11
55291;BME280;41155;39.768;2.712;2024-01-16T08:34:10;100828.25;;;12.12;93.29
55291;BME280;41155;39.768;2.712;2024-01-16T08:36:35;100860.72;;;12.39;93.50
55291;BME280;41155;39.768;2.712;2024-01-16T08:39:01;100850.97;;;12.43;94.04
55291;BME280;41155;39.768;2.712;2024-01-16T08:41:26;100858.63;;;12.51;94.91
55291;BME280;41155;39.768;2.712;2024-01-16T08:43:52;100860.03;;;12.59;94.25
55291;BME280;41155;39.768;2.712;2024-01-16T08:46:18;100855.47;;;12.70;93.93
55291;BME280;41155;39.768;2.712;2024-01-16T08:48:45;100860.38;;;12.73;93.46
55291;BME280;41155;39.768;2.712;2024-01-16T08:51:12;100852.56;;;12.76;92.91
55291;BME280;41155;39.768;2.712;2024-01-16T08:53:37;100852.59;;;12.86;92.44
55291;BME280;41155;39.768;2.712;2024-01-16T08:56:03;100858.63;;;12.99;91.81
55291;BME280;41155;39.768;2.712;2024-01-16T08:58:32;100847.50;;;12.95;91.22
55291;BME280;41155;39.768;2.712;2024-01-16T09:01:02;100832.59;;;12.98;90.59
55291;BME280;41155;39.768;2.712;2024-01-16T09:03:28;100842.00;;;13.32;90.03
55291;BME280;41155;39.768;2.712;2024-01-16T09:05:53;100855.72;;;14.09;88.26
55291;BME280;41155;39.768;2.712;2024-01-16T09:08:19;100852.00;;;15.16;85.64
55291;BME280;41155;39.768;2.712;2024-01-16T09:10:44;100835.03;;;15.40;79.35
55291;BME280;41155;39.768;2.712;2024-01-16T09:13:10;100833.13;;;16.48;76.87
55291;BME280;41155;39.768;2.712;2024-01-16T09:15:36;100855.72;;;16.54;74.97
55291;BME280;41155;39.768;2.712;2024-01-16T09:18:02;100848.78;;;16.37;75.19
55291;BME280;41155;39.768;2.712;2024-01-16T09:20:27;100852.66;;;16.89;74.50
55291;BME280;41155;39.768;2.712;2024-01-16T09:22:53;100827.84;;;18.23;70.84
55291;BME280;41155;39.768;2.712;2024-01-16T09:25:18;100828.88;;;19.15;67.15
55291;BME280;41155;39.768;2.712;2024-01-16T09:27:44;100834.88;;;20.13;63.44
55291;BME280;41155;39.768;2.712;2024-01-16T09:30:10;100833.84;;;20.93;60.33
55291;BME280;41155;39.768;2.712;2024-01-16T09:32:35;100830.13;;;21.81;58.54
55291;BME280;41155;39.768;2.712;2024-01-16T09:35:02;100812.78;;;22.07;55.84
55291;BME280;41155;39.768;2.712;2024-01-16T09:37:29;100821.69;;;23.07;53.41
55291;BME280;41155;39.768;2.712;2024-01-16T09:39:55;100815.25;;;23.74;51.47
55291;BME280;41155;39.768;2.712;2024-01-16T09:42:20;100809.69;;;24.41;50.28
55291;BME280;41155;39.768;2.712;2024-01-16T09:44:48;100824.25;;;24.99;47.28
55291;BME280;41155;39.768;2.712;2024-01-16T09:47:15;100830.81;;;25.43;46.79
55291;BME280;41155;39.768;2.712;2024-01-16T09:49:42;100820.34;;;24.51;47.70
55291;BME280;41155;39.768;2.712;2024-01-16T09:52:08;100837.16;;;25.32;46.97
55291;BME280;41155;39.768;2.712;2024-01-16T09:54:34;100836.19;;;25.92;45.70
55291;BME280;41155;39.768;2.712;2024-01-16T09:57:02;100852.81;;;26.36;44.65
55291;BME280;41155;39.768;2.712;2024-01-16T09:59:32;100855.72;;;26.56;42.59
55291;BME280;41155;39.768;2.712;2024-01-16T10:01:58;100865.53;;;26.25;43.69
55291;BME280;41155;39.768;2.712;2024-01-16T10:04:26;100862.38;;;26.11;44.25
55291;BME280;41155;39.768;2.712;2024-01-16T10:06:54;100864.59;;;25.65;46.17
55291;BME280;41155;39.768;2.712;2024-01-16T10:09:20;100862.00;;;23.62;51.10
55291;BME280;41155;39.768;2.712;2024-01-16T10:11:47;100869.59;;;23.44;52.75
55291;BME280;41155;39.768;2.712;2024-01-16T10:14:13;100867.09;;;23.00;53.71
55291;BME280;41155;39.768;2.712;2024-01-16T10:17:02;100862.63;;;22.23;57.40
55291;BME280;41155;39.768;2.712;2024-01-16T10:19:33;100868.13;;;21.97;59.20
55291;BME280;41155;39.768;2.712;2024-01-16T10:22:03;100882.50;;;21.67;59.62
55291;BME280;41155;39.768;2.712;2024-01-16T10:24:29;100880.34;;;21.38;60.99
55291;BME280;41155;39.768;2.712;2024-01-16T10:26:59;100884.13;;;21.11;62.20
55291;BME280;41155;39.768;2.712;2024-01-16T10:29:26;100881.47;;;20.58;64.31
55291;BME280;41155;39.768;2.712;2024-01-16T10:31:52;100890.94;;;20.29;65.49
55291;BME280;41155;39.768;2.712;2024-01-16T10:34:21;100898.03;;;20.30;65.01
55291;BME280;41155;39.768;2.712;2024-01-16T10:36:51;100901.47;;;20.36;64.40
55291;BME280;41155;39.768;2.712;2024-01-16T10:39:20;100892.59;;;20.39;62.56
55291;BME280;41155;39.768;2.712;2024-01-16T10:41:56;100921.41;;;20.27;63.03
55291;BME280;41155;39.768;2.712;2024-01-16T10:44:22;100922.09;;;20.11;62.09
55291;BME280;41155;39.768;2.712;2024-01-16T10:46:48;100920.50;;;19.96;62.93
55291;BME280;41155;39.768;2.712;2024-01-16T10:49:14;100920.75;;;19.85;63.07
55291;BME280;41155;39.768;2.712;2024-01-16T10:51:43;100935.78;;;19.88;63.09
55291;BME280;41155;39.768;2.712;2024-01-16T10:54:12;100918.94;;;19.81;63.10
55291;BME280;41155;39.768;2.712;2024-01-16T10:56:45;100919.72;;;19.81;63.43
55291;BME280;41155;39.768;2.712;2024-01-16T10:59:33;100914.75;;;19.83;64.05
55291;BME280;41155;39.768;2.712;2024-01-16T11:02:02;100912.81;;;19.84;63.58
55291;BME280;41155;39.768;2.712;2024-01-16T11:04:29;100902.91;;;19.74;63.66
55291;BME280;41155;39.768;2.712;2024-01-16T11:06:55;100917.31;;;19.80;64.18
55291;BME280;41155;39.768;2.712;2024-01-16T11:09:21;100916.50;;;19.79;64.60
55291;BME280;41155;39.768;2.712;2024-01-16T11:11:47;100905.94;;;19.73;64.39
55291;BME280;41155;39.768;2.712;2024-01-16T11:14:16;100906.88;;;19.68;64.60
55291;BME280;41155;39.768;2.712;2024-01-16T11:16:42;100900.09;;;19.66;63.71
55291;BME280;41155;39.768;2.712;2024-01-16T11:19:10;100896.63;;;19.60;64.89
55291;BME280;41155;39.768;2.712;2024-01-16T11:21:37;100895.31;;;19.57;65.79
55291;BME280;41155;39.768;2.712;2024-01-16T11:24:04;100889.44;;;19.50;64.84
55291;BME280;41155;39.768;2.712;2024-01-16T11:26:31;100893.09;;;19.59;64.84
55291;BME280;41155;39.768;2.712;2024-01-16T11:31:51;100873.72;;;19.92;65.01
55291;BME280;41155;39.768;2.712;2024-01-16T11:37:15;100859.28;;;20.23;62.76
55291;BME280;41155;39.768;2.712;2024-01-16T11:39:40;100851.53;;;20.25;63.55
55291;BME280;41155;39.768;2.712;2024-01-16T11:42:06;100853.19;;;20.26;63.51
55291;BME280;41155;39.768;2.712;2024-01-16T11:44:42;100850.22;;;20.14;63.39
55291;BME280;41155;39.768;2.712;2024-01-16T11:47:10;100855.69;;;20.14;64.28
55291;BME280;41155;39.768;2.712;2024-01-16T11:49:40;100856.66;;;20.18;63.60
55291;BME280;41155;39.768;2.712;2024-01-16T11:52:06;100850.31;;;20.31;63.49
55291;BME280;41155;39.768;2.712;2024-01-16T11:54:33;100853.28;;;20.43;62.83
55291;BME280;41155;39.768;2.712;2024-01-16T12:05:11;100851.34;;;20.66;59.56
55291;BME280;41155;39.768;2.712;2024-01-16T12:07:49;100847.50;;;20.76;59.48
55291;BME280;41155;39.768;2.712;2024-01-16T12:10:17;100839.31;;;20.85;60.76
55291;BME280;41155;39.768;2.712;2024-01-16T12:12:43;100841.13;;;20.98;61.85
55291;BME280;41155;39.768;2.712;2024-01-16T12:15:20;100837.41;;;21.03;61.16
55291;BME280;41155;39.768;2.712;2024-01-16T12:17:59;100831.22;;;20.88;58.71
55291;BME280;41155;39.768;2.712;2024-01-16T12:20:27;100837.88;;;20.96;58.01
55291;BME280;41155;39.768;2.712;2024-01-16T12:22:55;100834.53;;;21.08;58.95
55291;BME280;41155;39.768;2.712;2024-01-16T12:25:22;100829.88;;;21.17;59.22
55291;BME280;41155;39.768;2.712;2024-01-16T12:28:01;100814.06;;;21.22;57.68
55291;BME280;41155;39.768;2.712;2024-01-16T12:30:29;100812.59;;;21.25;56.69
55291;BME280;41155;39.768;2.712;2024-01-16T12:33:08;100809.34;;;21.23;56.78
55291;BME280;41155;39.768;2.712;2024-01-16T12:35:35;100791.13;;;21.18;56.88
55291;BME280;41155;39.768;2.712;2024-01-16T12:38:01;100808.44;;;21.36;56.58
55291;BME280;41155;39.768;2.712;2024-01-16T12:40:28;100799.72;;;21.43;55.44
55291;BME280;41155;39.768;2.712;2024-01-16T12:42:55;100786.97;;;21.47;55.47
55291;BME280;41155;39.768;2.712;2024-01-16T12:45:22;100796.97;;;21.43;54.97
55291;BME280;41155;39.768;2.712;2024-01-16T12:47:52;100785.84;;;21.39;54.63
55291;BME280;41155;39.768;2.712;2024-01-16T12:50:22;100781.78;;;21.46;54.63
55291;BME280;41155;39.768;2.712;2024-01-16T12:53:09;100776.16;;;21.42;55.51
55291;BME280;41155;39.768;2.712;2024-01-16T12:55:39;100784.53;;;21.46;55.69
55291;BME280;41155;39.768;2.712;2024-01-16T12:58:16;100790.00;;;21.28;55.50
55291;BME280;41155;39.768;2.712;2024-01-16T13:00:46;100774.31;;;21.20;55.00